sensor_id;sensor_type;location;lat;lon;timestamp;P1;durP1;ratioP1;P2;durP2;ratioP2
78555;SDS011;67851;51.354;7.744;2023-03-01T00:02:19;16.98;;;9.93;;
78555;SDS011;67851;51.354;7.744;2023-03-01T00:04:44;21.13;;;14.07;;
78555;SDS011;67851;51.354;7.744;2023-03-01T00:07:10;22.83;;;12.75;;
78555;SDS011;67851;51.354;7.744;2023-03-01T00:09:36;22.85;;;11.20;;
78555;SDS011;67851;51.354;7.744;2023-03-01T00:12:02;21.10;;;13.05;;
78555;SDS011;67851;51.354;7.744;2023-03-01T00:14:28;21.50;;;12.35;;
78555;SDS011;67851;51.354;7.744;2023-03-01T00:16:53;24.25;;;13.52;;
78555;SDS011;67851;51.354;7.744;2023-03-01T00:19:19;19.63;;;12.23;;
78555;SDS011;67851;51.354;7.744;2023-03-01T00:21:45;19.15;;;11.85;;
78555;SDS011;67851;51.354;7.744;2023-03-01T00:24:12;22.75;;;13.05;;
78555;SDS011;67851;51.354;7.744;2023-03-01T00:26:38;20.98;;;12.98;;
78555;SDS011;67851;51.354;7.744;2023-03-01T00:29:03;16.83;;;11.45;;
78555;SDS011;67851;51.354;7.744;2023-03-01T00:31:30;19.02;;;10.82;;
78555;SDS011;67851;51.354;7.744;2023-03-01T00:33:57;21.30;;;12.70;;
78555;SDS011;67851;51.354;7.744;2023-03-01T00:36:25;21.88;;;12.85;;
78555;SDS011;67851;51.354;7.744;2023-03-01T00:38:52;21.77;;;12.95;;
78555;SDS011;67851;51.354;7.744;2023-03-01T00:41:18;24.85;;;14.30;;
78555;SDS011;67851;51.354;7.744;2023-03-01T00:43:45;22.52;;;14.27;;
78555;SDS011;67851;51.354;7.744;2023-03-01T00:46:12;21.33;;;13.32;;
78555;SDS011;67851;51.354;7.744;2023-03-01T00:48:39;24.77;;;14.05;;
78555;SDS011;67851;51.354;7.744;2023-03-01T00:53:35;19.52;;;12.27;;
78555;SDS011;67851;51.354;7.744;2023-03-01T00:56:01;24.20;;;12.80;;
78555;SDS011;67851;51.354;7.744;2023-03-01T00:58:27;21.80;;;13.40;;
78555;SDS011;67851;51.354;7.744;2023-03-01T01:00:53;23.58;;;13.52;;
78555;SDS011;67851;51.354;7.744;2023-03-01T01:03:19;20.13;;;11.90;;
78555;SDS011;67851;51.354;7.744;2023-03-01T01:05:44;20.42;;;13.05;;
78555;SDS011;67851;51.354;7.744;2023-03-01T01:08:10;23.80;;;13.60;;
78555;SDS011;67851;51.354;7.744;2023-03-01T01:10:36;26.20;;;14.38;;
78555;SDS011;67851;51.354;7.744;2023-03-01T01:13:02;28.25;;;13.35;;
78555;SDS011;67851;51.354;7.744;2023-03-01T01:15:28;22.90;;;13.27;;
78555;SDS011;67851;51.354;7.744;2023-03-01T01:17:53;23.15;;;13.95;;
78555;SDS011;67851;51.354;7.744;2023-03-01T01:20:20;25.60;;;15.00;;
78555;SDS011;67851;51.354;7.744;2023-03-01T01:22:46;26.58;;;14.95;;
78555;SDS011;67851;51.354;7.744;2023-03-01T01:25:11;30.65;;;15.75;;
78555;SDS011;67851;51.354;7.744;2023-03-01T01:27:37;30.45;;;15.80;;
78555;SDS011;67851;51.354;7.744;2023-03-01T01:30:03;30.15;;;15.25;;
78555;SDS011;67851;51.354;7.744;2023-03-01T01:32:29;25.40;;;15.05;;
78555;SDS011;67851;51.354;7.744;2023-03-01T01:34:55;26.98;;;15.02;;
78555;SDS011;67851;51.354;7.744;2023-03-01T01:37:20;27.13;;;15.00;;
78555;SDS011;67851;51.354;7.744;2023-03-01T01:39:46;32.22;;;15.73;;
78555;SDS011;67851;51.354;7.744;2023-03-01T01:42:14;28.00;;;15.52;;
78555;SDS011;67851;51.354;7.744;2023-03-01T01:44:42;29.20;;;15.70;;
78555;SDS011;67851;51.354;7.744;2023-03-01T01:47:13;25.17;;;14.40;;
78555;SDS011;67851;51.354;7.744;2023-03-01T01:52:14;27.75;;;16.30;;
78555;SDS011;67851;51.354;7.744;2023-03-01T01:57:36;22.48;;;13.57;;
78555;SDS011;67851;51.354;7.744;2023-03-01T02:00:11;28.80;;;17.25;;
78555;SDS011;67851;51.354;7.744;2023-03-01T02:02:38;34.58;;;17.55;;
78555;SDS011;67851;51.354;7.744;2023-03-01T02:05:09;21.52;;;12.85;;
78555;SDS011;67851;51.354;7.744;2023-03-01T02:07:39;27.13;;;14.25;;
78555;SDS011;67851;51.354;7.744;2023-03-01T02:10:05;28.10;;;14.95;;
78555;SDS011;67851;51.354;7.744;2023-03-01T02:12:31;26.70;;;14.85;;
78555;SDS011;67851;51.354;7.744;2023-03-01T02:14:57;30.08;;;16.60;;
78555;SDS011;67851;51.354;7.744;2023-03-01T02:17:24;26.23;;;15.25;;
78555;SDS011;67851;51.354;7.744;2023-03-01T02:19:53;30.55;;;15.73;;
78555;SDS011;67851;51.354;7.744;2023-03-01T02:30:32;31.92;;;17.40;;
78555;SDS011;67851;51.354;7.744;2023-03-01T02:32:58;30.60;;;16.25;;
78555;SDS011;67851;51.354;7.744;2023-03-01T02:35:29;29.92;;;16.45;;
78555;SDS011;67851;51.354;7.744;2023-03-01T02:38:06;27.95;;;16.70;;
78555;SDS011;67851;51.354;7.744;2023-03-01T02:40:33;30.17;;;17.05;;
78555;SDS011;67851;51.354;7.744;2023-03-01T02:42:59;31.00;;;17.15;;
78555;SDS011;67851;51.354;7.744;2023-03-01T02:45:25;29.60;;;16.65;;
78555;SDS011;67851;51.354;7.744;2023-03-01T02:47:55;26.73;;;15.80;;
78555;SDS011;67851;51.354;7.744;2023-03-01T02:50:24;35.45;;;18.60;;
78555;SDS011;67851;51.354;7.744;2023-03-01T02:55:45;30.98;;;18.55;;
78555;SDS011;67851;51.354;7.744;2023-03-01T02:58:11;28.23;;;16.70;;
78555;SDS011;67851;51.354;7.744;2023-03-01T03:00:37;33.65;;;17.33;;
78555;SDS011;67851;51.354;7.744;2023-03-01T03:03:13;36.13;;;18.00;;
78555;SDS011;67851;51.354;7.744;2023-03-01T03:05:39;33.90;;;16.63;;
78555;SDS011;67851;51.354;7.744;2023-03-01T03:08:05;34.28;;;17.70;;
78555;SDS011;67851;51.354;7.744;2023-03-01T03:10:36;32.25;;;17.45;;
78555;SDS011;67851;51.354;7.744;2023-03-01T03:13:07;35.35;;;17.83;;
78555;SDS011;67851;51.354;7.744;2023-03-01T03:15:35;36.25;;;17.52;;
78555;SDS011;67851;51.354;7.744;2023-03-01T03:18:02;34.63;;;18.85;;
78555;SDS011;67851;51.354;7.744;2023-03-01T03:20:29;36.30;;;19.42;;
78555;SDS011;67851;51.354;7.744;2023-03-01T03:22:55;34.13;;;18.42;;
78555;SDS011;67851;51.354;7.744;2023-03-01T03:25:22;38.05;;;21.00;;
78555;SDS011;67851;51.354;7.744;2023-03-01T03:27:49;39.45;;;21.65;;
78555;SDS011;67851;51.354;7.744;2023-03-01T03:30:22;42.80;;;18.73;;
78555;SDS011;67851;51.354;7.744;2023-03-01T03:32:49;33.40;;;18.27;;
78555;SDS011;67851;51.354;7.744;2023-03-01T03:35:21;33.28;;;18.10;;
78555;SDS011;67851;51.354;7.744;2023-03-01T03:37:49;30.65;;;17.13;;
78555;SDS011;67851;51.354;7.744;2023-03-01T03:40:37;41.45;;;20.08;;
78555;SDS011;67851;51.354;7.744;2023-03-01T03:43:05;32.45;;;15.07;;
78555;SDS011;67851;51.354;7.744;2023-03-01T03:45:41;38.35;;;18.80;;
78555;SDS011;67851;51.354;7.744;2023-03-01T03:48:09;36.30;;;17.95;;
78555;SDS011;67851;51.354;7.744;2023-03-01T03:50:35;40.83;;;19.67;;
78555;SDS011;67851;51.354;7.744;2023-03-01T03:53:03;34.33;;;18.83;;
78555;SDS011;67851;51.354;7.744;2023-03-01T03:55:29;29.33;;;17.05;;
78555;SDS011;67851;51.354;7.744;2023-03-01T03:57:57;34.50;;;17.98;;
78555;SDS011;67851;51.354;7.744;2023-03-01T04:00:23;40.70;;;19.17;;
78555;SDS011;67851;51.354;7.744;2023-03-01T04:02:49;29.92;;;15.55;;
78555;SDS011;67851;51.354;7.744;2023-03-01T04:05:16;35.30;;;18.20;;
78555;SDS011;67851;51.354;7.744;2023-03-01T04:07:44;42.40;;;21.23;;
78555;SDS011;67851;51.354;7.744;2023-03-01T04:10:14;39.08;;;19.67;;
78555;SDS011;67851;51.354;7.744;2023-03-01T04:12:41;43.40;;;20.42;;
78555;SDS011;67851;51.354;7.744;2023-03-01T04:15:08;41.97;;;20.23;;
78555;SDS011;67851;51.354;7.744;2023-03-01T04:17:41;47.85;;;25.20;;
78555;SDS011;67851;51.354;7.744;2023-03-01T04:20:18;47.50;;;22.95;;
78555;SDS011;67851;51.354;7.744;2023-03-01T04:22:52;47.00;;;23.83;;
78555;SDS011;67851;51.354;7.744;2023-03-01T04:25:18;45.42;;;23.10;;
78555;SDS011;67851;51.354;7.744;2023-03-01T04:27:44;41.10;;;21.08;;
78555;SDS011;67851;51.354;7.744;2023-03-01T04:30:10;43.53;;;21.80;;
78555;SDS011;67851;51.354;7.744;2023-03-01T04:32:36;36.72;;;19.48;;
78555;SDS011;67851;51.354;7.744;2023-03-01T04:35:01;34.45;;;19.30;;
78555;SDS011;67851;51.354;7.744;2023-03-01T04:37:27;35.15;;;20.52;;
78555;SDS011;67851;51.354;7.744;2023-03-01T04:39:52;39.40;;;21.58;;
78555;SDS011;67851;51.354;7.744;2023-03-01T04:42:18;40.58;;;21.27;;
78555;SDS011;67851;51.354;7.744;2023-03-01T04:44:44;38.63;;;21.38;;
78555;SDS011;67851;51.354;7.744;2023-03-01T04:47:11;41.30;;;21.80;;
78555;SDS011;67851;51.354;7.744;2023-03-01T04:49:36;41.42;;;21.70;;
78555;SDS011;67851;51.354;7.744;2023-03-01T04:52:03;42.33;;;20.83;;
78555;SDS011;67851;51.354;7.744;2023-03-01T04:54:29;40.60;;;21.50;;
78555;SDS011;67851;51.354;7.744;2023-03-01T04:56:58;41.95;;;21.20;;
78555;SDS011;67851;51.354;7.744;2023-03-01T04:59:24;44.15;;;21.52;;
78555;SDS011;67851;51.354;7.744;2023-03-01T05:01:53;42.17;;;21.95;;
78555;SDS011;67851;51.354;7.744;2023-03-01T05:04:23;44.67;;;22.38;;
78555;SDS011;67851;51.354;7.744;2023-03-01T05:06:49;44.90;;;22.42;;
78555;SDS011;67851;51.354;7.744;2023-03-01T05:09:14;47.17;;;22.80;;
78555;SDS011;67851;51.354;7.744;2023-03-01T05:11:40;42.72;;;21.85;;
78555;SDS011;67851;51.354;7.744;2023-03-01T05:14:06;48.40;;;21.30;;
78555;SDS011;67851;51.354;7.744;2023-03-01T05:16:33;41.10;;;20.38;;
78555;SDS011;67851;51.354;7.744;2023-03-01T05:18:59;39.58;;;20.70;;
78555;SDS011;67851;51.354;7.744;2023-03-01T05:21:25;46.58;;;23.75;;
78555;SDS011;67851;51.354;7.744;2023-03-01T05:23:51;48.03;;;23.65;;
78555;SDS011;67851;51.354;7.744;2023-03-01T05:26:17;48.10;;;23.00;;
78555;SDS011;67851;51.354;7.744;2023-03-01T05:28:44;44.72;;;22.25;;
78555;SDS011;67851;51.354;7.744;2023-03-01T05:31:09;47.20;;;23.40;;
78555;SDS011;67851;51.354;7.744;2023-03-01T05:33:39;45.75;;;22.92;;
78555;SDS011;67851;51.354;7.744;2023-03-01T05:36:06;49.40;;;24.30;;
78555;SDS011;67851;51.354;7.744;2023-03-01T05:38:32;47.72;;;24.27;;
78555;SDS011;67851;51.354;7.744;2023-03-01T05:40:58;46.38;;;23.35;;
78555;SDS011;67851;51.354;7.744;2023-03-01T05:43:24;50.97;;;24.25;;
78555;SDS011;67851;51.354;7.744;2023-03-01T05:45:49;50.70;;;24.52;;
78555;SDS011;67851;51.354;7.744;2023-03-01T05:48:15;46.15;;;22.85;;
78555;SDS011;67851;51.354;7.744;2023-03-01T05:50:41;53.85;;;24.95;;
78555;SDS011;67851;51.354;7.744;2023-03-01T05:53:12;59.42;;;30.17;;
78555;SDS011;67851;51.354;7.744;2023-03-01T05:55:40;57.83;;;28.13;;
78555;SDS011;67851;51.354;7.744;2023-03-01T05:58:10;54.42;;;27.35;;
78555;SDS011;67851;51.354;7.744;2023-03-01T06:00:37;58.35;;;26.35;;
78555;SDS011;67851;51.354;7.744;2023-03-01T06:03:02;53.05;;;26.63;;
78555;SDS011;67851;51.354;7.744;2023-03-01T06:05:28;60.85;;;28.23;;
78555;SDS011;67851;51.354;7.744;2023-03-01T06:07:54;61.22;;;28.83;;
78555;SDS011;67851;51.354;7.744;2023-03-01T06:10:21;49.03;;;25.85;;
78555;SDS011;67851;51.354;7.744;2023-03-01T06:12:47;58.20;;;29.25;;
78555;SDS011;67851;51.354;7.744;2023-03-01T06:15:16;54.50;;;28.98;;
78555;SDS011;67851;51.354;7.744;2023-03-01T06:17:43;54.63;;;24.88;;
78555;SDS011;67851;51.354;7.744;2023-03-01T06:20:10;49.38;;;24.58;;
78555;SDS011;67851;51.354;7.744;2023-03-01T06:22:39;45.45;;;22.92;;
78555;SDS011;67851;51.354;7.744;2023-03-01T06:25:06;52.47;;;24.90;;
78555;SDS011;67851;51.354;7.744;2023-03-01T06:27:32;51.22;;;23.38;;
78555;SDS011;67851;51.354;7.744;2023-03-01T06:29:58;44.85;;;23.58;;
78555;SDS011;67851;51.354;7.744;2023-03-01T06:32:23;49.72;;;24.80;;
78555;SDS011;67851;51.354;7.744;2023-03-01T06:34:49;48.80;;;24.35;;
78555;SDS011;67851;51.354;7.744;2023-03-01T06:37:15;50.35;;;25.20;;
78555;SDS011;67851;51.354;7.744;2023-03-01T06:39:41;47.47;;;23.67;;
78555;SDS011;67851;51.354;7.744;2023-03-01T06:42:10;52.25;;;26.20;;
78555;SDS011;67851;51.354;7.744;2023-03-01T06:44:36;55.13;;;27.05;;
78555;SDS011;67851;51.354;7.744;2023-03-01T06:47:02;57.78;;;27.83;;
78555;SDS011;67851;51.354;7.744;2023-03-01T06:49:28;56.88;;;26.50;;
78555;SDS011;67851;51.354;7.744;2023-03-01T06:51:54;60.75;;;28.92;;
78555;SDS011;67851;51.354;7.744;2023-03-01T06:54:20;64.93;;;28.45;;
78555;SDS011;67851;51.354;7.744;2023-03-01T06:56:47;50.90;;;24.60;;
78555;SDS011;67851;51.354;7.744;2023-03-01T06:59:13;46.60;;;24.73;;
78555;SDS011;67851;51.354;7.744;2023-03-01T07:01:40;51.13;;;26.88;;
78555;SDS011;67851;51.354;7.744;2023-03-01T07:04:05;59.63;;;28.88;;
78555;SDS011;67851;51.354;7.744;2023-03-01T07:06:31;51.90;;;26.55;;
78555;SDS011;67851;51.354;7.744;2023-03-01T07:08:56;46.17;;;24.33;;
78555;SDS011;67851;51.354;7.744;2023-03-01T07:11:22;36.97;;;22.08;;
78555;SDS011;67851;51.354;7.744;2023-03-01T07:13:48;29.60;;;18.50;;
78555;SDS011;67851;51.354;7.744;2023-03-01T07:16:13;35.10;;;20.63;;
78555;SDS011;67851;51.354;7.744;2023-03-01T07:18:40;43.38;;;22.80;;
78555;SDS011;67851;51.354;7.744;2023-03-01T07:21:09;35.38;;;19.60;;
78555;SDS011;67851;51.354;7.744;2023-03-01T07:23:37;31.52;;;18.48;;
78555;SDS011;67851;51.354;7.744;2023-03-01T07:26:03;28.40;;;17.75;;
78555;SDS011;67851;51.354;7.744;2023-03-01T07:28:28;36.13;;;19.40;;
78555;SDS011;67851;51.354;7.744;2023-03-01T07:30:54;31.10;;;18.90;;
78555;SDS011;67851;51.354;7.744;2023-03-01T07:33:20;30.40;;;18.13;;
78555;SDS011;67851;51.354;7.744;2023-03-01T07:35:46;25.90;;;16.50;;
78555;SDS011;67851;51.354;7.744;2023-03-01T07:38:11;28.77;;;16.83;;
78555;SDS011;67851;51.354;7.744;2023-03-01T07:40:37;22.52;;;14.45;;
78555;SDS011;67851;51.354;7.744;2023-03-01T07:43:03;28.23;;;15.95;;
78555;SDS011;67851;51.354;7.744;2023-03-01T07:45:29;25.33;;;15.10;;
78555;SDS011;67851;51.354;7.744;2023-03-01T07:47:54;23.73;;;14.38;;
78555;SDS011;67851;51.354;7.744;2023-03-01T07:50:20;26.30;;;15.40;;
78555;SDS011;67851;51.354;7.744;2023-03-01T07:52:47;23.73;;;14.98;;
78555;SDS011;67851;51.354;7.744;2023-03-01T07:55:14;20.65;;;13.93;;
78555;SDS011;67851;51.354;7.744;2023-03-01T07:57:40;21.02;;;13.82;;
78555;SDS011;67851;51.354;7.744;2023-03-01T08:00:06;19.80;;;12.80;;
78555;SDS011;67851;51.354;7.744;2023-03-01T08:02:37;16.58;;;11.52;;
78555;SDS011;67851;51.354;7.744;2023-03-01T08:05:02;17.25;;;11.45;;
78555;SDS011;67851;51.354;7.744;2023-03-01T08:07:28;17.92;;;11.27;;
78555;SDS011;67851;51.354;7.744;2023-03-01T08:09:54;21.02;;;12.70;;
78555;SDS011;67851;51.354;7.744;2023-03-01T08:12:19;18.15;;;11.32;;
78555;SDS011;67851;51.354;7.744;2023-03-01T08:14:45;18.60;;;11.52;;
78555;SDS011;67851;51.354;7.744;2023-03-01T08:17:13;15.38;;;10.15;;
78555;SDS011;67851;51.354;7.744;2023-03-01T08:19:39;17.08;;;10.43;;
78555;SDS011;67851;51.354;7.744;2023-03-01T08:22:04;17.40;;;10.85;;
78555;SDS011;67851;51.354;7.744;2023-03-01T08:24:30;15.93;;;10.70;;
78555;SDS011;67851;51.354;7.744;2023-03-01T08:26:55;17.50;;;11.15;;
78555;SDS011;67851;51.354;7.744;2023-03-01T08:29:21;18.85;;;11.23;;
78555;SDS011;67851;51.354;7.744;2023-03-01T08:31:47;19.80;;;12.35;;
78555;SDS011;67851;51.354;7.744;2023-03-01T08:34:14;15.90;;;10.70;;
78555;SDS011;67851;51.354;7.744;2023-03-01T08:36:42;19.15;;;11.60;;
78555;SDS011;67851;51.354;7.744;2023-03-01T08:39:10;16.38;;;10.65;;
78555;SDS011;67851;51.354;7.744;2023-03-01T08:41:37;15.18;;;10.45;;
78555;SDS011;67851;51.354;7.744;2023-03-01T08:44:04;17.10;;;11.68;;
78555;SDS011;67851;51.354;7.744;2023-03-01T08:46:31;20.08;;;11.35;;
78555;SDS011;67851;51.354;7.744;2023-03-01T08:48:58;16.45;;;10.52;;
78555;SDS011;67851;51.354;7.744;2023-03-01T08:51:24;12.70;;;9.30;;
78555;SDS011;67851;51.354;7.744;2023-03-01T08:53:50;21.20;;;10.35;;
78555;SDS011;67851;51.354;7.744;2023-03-01T08:56:15;16.38;;;10.98;;
78555;SDS011;67851;51.354;7.744;2023-03-01T08:58:45;13.25;;;9.40;;
78555;SDS011;67851;51.354;7.744;2023-03-01T09:04:42;16.92;;;8.85;;
78555;SDS011;67851;51.354;7.744;2023-03-01T09:07:09;13.27;;;7.53;;
78555;SDS011;67851;51.354;7.744;2023-03-01T09:12:57;13.35;;;8.77;;
78555;SDS011;67851;51.354;7.744;2023-03-01T09:15:22;13.65;;;8.52;;
78555;SDS011;67851;51.354;7.744;2023-03-01T09:17:48;18.00;;;10.23;;
78555;SDS011;67851;51.354;7.744;2023-03-01T09:20:13;16.08;;;8.90;;
78555;SDS011;67851;51.354;7.744;2023-03-01T09:22:39;13.00;;;8.10;;
78555;SDS011;67851;51.354;7.744;2023-03-01T09:25:05;12.73;;;5.82;;
78555;SDS011;67851;51.354;7.744;2023-03-01T09:27:31;15.77;;;8.55;;
78555;SDS011;67851;51.354;7.744;2023-03-01T09:29:56;16.17;;;8.48;;
78555;SDS011;67851;51.354;7.744;2023-03-01T09:32:22;12.90;;;7.97;;
78555;SDS011;67851;51.354;7.744;2023-03-01T09:34:47;12.00;;;6.78;;
78555;SDS011;67851;51.354;7.744;2023-03-01T09:37:32;16.45;;;9.10;;
78555;SDS011;67851;51.354;7.744;2023-03-01T09:39:58;12.55;;;8.18;;
78555;SDS011;67851;51.354;7.744;2023-03-01T09:42:24;14.77;;;9.10;;
78555;SDS011;67851;51.354;7.744;2023-03-01T09:44:54;11.90;;;8.63;;
78555;SDS011;67851;51.354;7.744;2023-03-01T09:49:57;13.57;;;7.90;;
78555;SDS011;67851;51.354;7.744;2023-03-01T09:54:56;11.45;;;7.30;;
78555;SDS011;67851;51.354;7.744;2023-03-01T10:00:57;11.73;;;8.00;;
78555;SDS011;67851;51.354;7.744;2023-03-01T10:05:41;11.15;;;6.47;;
78555;SDS011;67851;51.354;7.744;2023-03-01T10:10:48;12.90;;;8.38;;
78555;SDS011;67851;51.354;7.744;2023-03-01T10:15:56;12.48;;;7.72;;
78555;SDS011;67851;51.354;7.744;2023-03-01T10:18:25;15.40;;;8.00;;
78555;SDS011;67851;51.354;7.744;2023-03-01T10:23:51;13.52;;;7.95;;
78555;SDS011;67851;51.354;7.744;2023-03-01T10:29:03;11.18;;;7.25;;
78555;SDS011;67851;51.354;7.744;2023-03-01T10:31:49;12.05;;;7.72;;
78555;SDS011;67851;51.354;7.744;2023-03-01T10:34:37;11.23;;;7.00;;
78555;SDS011;67851;51.354;7.744;2023-03-01T10:37:12;10.77;;;7.30;;
78555;SDS011;67851;51.354;7.744;2023-03-01T10:40:02;13.30;;;7.75;;
78555;SDS011;67851;51.354;7.744;2023-03-01T10:42:39;13.23;;;7.25;;
78555;SDS011;67851;51.354;7.744;2023-03-01T10:45:16;12.10;;;7.88;;
78555;SDS011;67851;51.354;7.744;2023-03-01T10:48:04;12.40;;;7.07;;
78555;SDS011;67851;51.354;7.744;2023-03-01T10:50:31;11.65;;;7.93;;
78555;SDS011;67851;51.354;7.744;2023-03-01T10:53:01;10.82;;;7.28;;
78555;SDS011;67851;51.354;7.744;2023-03-01T10:55:37;13.05;;;7.57;;
78555;SDS011;67851;51.354;7.744;2023-03-01T11:00:50;11.07;;;6.95;;
78555;SDS011;67851;51.354;7.744;2023-03-01T11:03:21;10.43;;;6.85;;
78555;SDS011;67851;51.354;7.744;2023-03-01T11:05:53;12.30;;;7.28;;
78555;SDS011;67851;51.354;7.744;2023-03-01T11:08:41;12.63;;;7.32;;
78555;SDS011;67851;51.354;7.744;2023-03-01T11:11:22;12.80;;;7.40;;
78555;SDS011;67851;51.354;7.744;2023-03-01T11:16:35;10.25;;;6.65;;
78555;SDS011;67851;51.354;7.744;2023-03-01T11:21:35;10.15;;;6.75;;
78555;SDS011;67851;51.354;7.744;2023-03-01T11:24:18;11.77;;;7.43;;
78555;SDS011;67851;51.354;7.744;2023-03-01T11:26:46;11.95;;;7.18;;
78555;SDS011;67851;51.354;7.744;2023-03-01T11:29:26;9.93;;;7.10;;
78555;SDS011;67851;51.354;7.744;2023-03-01T11:31:56;12.30;;;6.97;;
78555;SDS011;67851;51.354;7.744;2023-03-01T11:37:21;11.35;;;7.57;;
78555;SDS011;67851;51.354;7.744;2023-03-01T11:40:17;10.63;;;7.03;;
78555;SDS011;67851;51.354;7.744;2023-03-01T11:45:36;11.23;;;6.30;;
78555;SDS011;67851;51.354;7.744;2023-03-01T11:50:47;9.57;;;6.72;;
78555;SDS011;67851;51.354;7.744;2023-03-01T12:09:02;11.93;;;7.00;;
78555;SDS011;67851;51.354;7.744;2023-03-01T12:14:24;14.65;;;7.43;;
78555;SDS011;67851;51.354;7.744;2023-03-01T12:20:34;13.82;;;7.25;;
78555;SDS011;67851;51.354;7.744;2023-03-01T12:25:54;14.88;;;8.35;;
78555;SDS011;67851;51.354;7.744;2023-03-01T12:28:41;12.15;;;8.02;;
78555;SDS011;67851;51.354;7.744;2023-03-01T12:39:45;15.27;;;8.05;;
78555;SDS011;67851;51.354;7.744;2023-03-01T12:42:23;13.43;;;8.18;;
78555;SDS011;67851;51.354;7.744;2023-03-01T12:50:48;14.90;;;8.25;;
78555;SDS011;67851;51.354;7.744;2023-03-01T12:53:22;13.18;;;7.65;;
78555;SDS011;67851;51.354;7.744;2023-03-01T12:55:49;15.43;;;9.20;;
78555;SDS011;67851;51.354;7.744;2023-03-01T12:58:37;13.52;;;8.00;;
78555;SDS011;67851;51.354;7.744;2023-03-01T13:01:22;14.60;;;6.88;;
78555;SDS011;67851;51.354;7.744;2023-03-01T13:12:04;10.52;;;6.65;;
78555;SDS011;67851;51.354;7.744;2023-03-01T13:26:00;14.73;;;7.53;;
78555;SDS011;67851;51.354;7.744;2023-03-01T13:28:40;12.65;;;6.97;;
78555;SDS011;67851;51.354;7.744;2023-03-01T13:31:08;12.95;;;6.30;;
78555;SDS011;67851;51.354;7.744;2023-03-01T13:33:40;11.73;;;7.50;;
78555;SDS011;67851;51.354;7.744;2023-03-01T13:39:01;10.57;;;6.70;;
78555;SDS011;67851;51.354;7.744;2023-03-01T13:41:53;13.43;;;7.03;;
78555;SDS011;67851;51.354;7.744;2023-03-01T13:44:24;11.48;;;6.90;;
78555;SDS011;67851;51.354;7.744;2023-03-01T13:46:52;11.88;;;7.25;;
78555;SDS011;67851;51.354;7.744;2023-03-01T13:49:21;14.43;;;7.63;;
78555;SDS011;67851;51.354;7.744;2023-03-01T13:51:50;14.73;;;7.40;;
78555;SDS011;67851;51.354;7.744;2023-03-01T13:54:18;13.68;;;7.72;;
78555;SDS011;67851;51.354;7.744;2023-03-01T13:56:57;12.32;;;7.55;;
78555;SDS011;67851;51.354;7.744;2023-03-01T13:59:24;11.68;;;7.50;;
78555;SDS011;67851;51.354;7.744;2023-03-01T14:01:56;15.90;;;7.53;;
78555;SDS011;67851;51.354;7.744;2023-03-01T14:04:27;11.73;;;7.60;;
78555;SDS011;67851;51.354;7.744;2023-03-01T14:07:12;15.88;;;7.68;;
78555;SDS011;67851;51.354;7.744;2023-03-01T14:09:46;10.15;;;7.13;;
78555;SDS011;67851;51.354;7.744;2023-03-01T14:12:22;11.13;;;6.57;;
78555;SDS011;67851;51.354;7.744;2023-03-01T14:15:04;11.82;;;7.40;;
78555;SDS011;67851;51.354;7.744;2023-03-01T14:22:43;16.02;;;7.78;;
78555;SDS011;67851;51.354;7.744;2023-03-01T14:25:17;13.35;;;7.78;;
78555;SDS011;67851;51.354;7.744;2023-03-01T14:27:44;11.93;;;7.57;;
78555;SDS011;67851;51.354;7.744;2023-03-01T14:30:11;13.65;;;7.55;;
78555;SDS011;67851;51.354;7.744;2023-03-01T14:32:40;18.58;;;8.65;;
78555;SDS011;67851;51.354;7.744;2023-03-01T14:35:19;13.93;;;7.72;;
78555;SDS011;67851;51.354;7.744;2023-03-01T14:37:48;17.25;;;7.55;;
78555;SDS011;67851;51.354;7.744;2023-03-01T14:43:11;14.52;;;6.20;;
78555;SDS011;67851;51.354;7.744;2023-03-01T14:45:37;11.60;;;7.22;;
78555;SDS011;67851;51.354;7.744;2023-03-01T14:48:03;10.40;;;6.18;;
78555;SDS011;67851;51.354;7.744;2023-03-01T14:50:31;13.27;;;6.90;;
78555;SDS011;67851;51.354;7.744;2023-03-01T14:53:02;16.30;;;8.50;;
78555;SDS011;67851;51.354;7.744;2023-03-01T14:55:30;19.08;;;8.65;;
78555;SDS011;67851;51.354;7.744;2023-03-01T14:58:00;12.05;;;7.80;;
78555;SDS011;67851;51.354;7.744;2023-03-01T15:00:28;14.88;;;6.90;;
78555;SDS011;67851;51.354;7.744;2023-03-01T15:02:56;15.18;;;8.32;;
78555;SDS011;67851;51.354;7.744;2023-03-01T15:05:30;16.38;;;11.77;;
78555;SDS011;67851;51.354;7.744;2023-03-01T15:07:57;13.43;;;7.45;;
78555;SDS011;67851;51.354;7.744;2023-03-01T15:10:25;20.05;;;12.48;;
78555;SDS011;67851;51.354;7.744;2023-03-01T15:12:54;15.20;;;8.30;;
78555;SDS011;67851;51.354;7.744;2023-03-01T15:17:55;15.05;;;7.45;;
78555;SDS011;67851;51.354;7.744;2023-03-01T15:20:23;14.38;;;7.10;;
78555;SDS011;67851;51.354;7.744;2023-03-01T15:25:24;16.95;;;8.82;;
78555;SDS011;67851;51.354;7.744;2023-03-01T15:27:51;19.42;;;7.97;;
78555;SDS011;67851;51.354;7.744;2023-03-01T15:30:20;11.73;;;7.00;;
78555;SDS011;67851;51.354;7.744;2023-03-01T15:35:46;10.30;;;6.55;;
78555;SDS011;67851;51.354;7.744;2023-03-01T15:38:26;10.30;;;5.65;;
78555;SDS011;67851;51.354;7.744;2023-03-01T15:40:52;12.23;;;7.13;;
78555;SDS011;67851;51.354;7.744;2023-03-01T15:46:31;12.20;;;7.40;;
78555;SDS011;67851;51.354;7.744;2023-03-01T15:49:00;14.10;;;6.70;;
78555;SDS011;67851;51.354;7.744;2023-03-01T15:51:29;20.85;;;7.47;;
78555;SDS011;67851;51.354;7.744;2023-03-01T15:54:02;16.90;;;9.90;;
78555;SDS011;67851;51.354;7.744;2023-03-01T15:56:30;12.90;;;7.80;;
78555;SDS011;67851;51.354;7.744;2023-03-01T15:58:59;11.90;;;6.97;;
78555;SDS011;67851;51.354;7.744;2023-03-01T16:01:26;12.52;;;6.47;;
78555;SDS011;67851;51.354;7.744;2023-03-01T16:03:52;12.15;;;7.10;;
78555;SDS011;67851;51.354;7.744;2023-03-01T16:06:19;12.45;;;7.18;;
78555;SDS011;67851;51.354;7.744;2023-03-01T16:08:44;11.82;;;7.25;;
78555;SDS011;67851;51.354;7.744;2023-03-01T16:11:15;11.40;;;6.82;;
78555;SDS011;67851;51.354;7.744;2023-03-01T16:13:42;12.00;;;7.00;;
78555;SDS011;67851;51.354;7.744;2023-03-01T16:16:09;19.52;;;7.90;;
78555;SDS011;67851;51.354;7.744;2023-03-01T16:18:37;11.43;;;7.70;;
78555;SDS011;67851;51.354;7.744;2023-03-01T16:21:03;10.43;;;6.07;;
78555;SDS011;67851;51.354;7.744;2023-03-01T16:23:30;13.38;;;6.68;;
78555;SDS011;67851;51.354;7.744;2023-03-01T16:25:58;16.90;;;6.68;;
78555;SDS011;67851;51.354;7.744;2023-03-01T16:28:25;17.23;;;7.03;;
78555;SDS011;67851;51.354;7.744;2023-03-01T16:30:51;13.82;;;7.78;;
78555;SDS011;67851;51.354;7.744;2023-03-01T16:33:17;12.73;;;7.70;;
78555;SDS011;67851;51.354;7.744;2023-03-01T16:35:42;16.05;;;7.72;;
78555;SDS011;67851;51.354;7.744;2023-03-01T16:38:09;11.20;;;6.68;;
78555;SDS011;67851;51.354;7.744;2023-03-01T16:40:36;16.52;;;6.60;;
78555;SDS011;67851;51.354;7.744;2023-03-01T16:43:02;12.45;;;7.40;;
78555;SDS011;67851;51.354;7.744;2023-03-01T16:45:29;12.20;;;6.82;;
78555;SDS011;67851;51.354;7.744;2023-03-01T16:50:25;12.02;;;7.15;;
78555;SDS011;67851;51.354;7.744;2023-03-01T16:52:51;17.50;;;7.43;;
78555;SDS011;67851;51.354;7.744;2023-03-01T16:55:16;13.18;;;7.07;;
78555;SDS011;67851;51.354;7.744;2023-03-01T16:57:42;15.50;;;6.90;;
78555;SDS011;67851;51.354;7.744;2023-03-01T17:00:08;12.07;;;6.65;;
78555;SDS011;67851;51.354;7.744;2023-03-01T17:02:35;13.57;;;7.22;;